Morozovsk, Russia
Current Conditions -  °F | °C
As of 5:30 PM on Thursday 23 Oct 2014 (Local Time) from URWW Reporting Station
Clear Clear  
Wind Chill: 21°   Ceiling: Unl
Heat Index: 28°   Visibility: 6mi
Dew Point: 21°   Wind: 7mph
Humidity: 74%   Direction: 20°NNE
Pressure: 30.12"   Gusts: NA
Location:  48.35°N, 41.83°E
Report Text: URWW 231430Z 02003MPS CAVOK M02/M06 Q1020 NOSIG RMK SC070
Loading
Personal Weather Stations






























Interactive Weather Map
Tropical Storm Tracking
New forecast layout! Learn more

10-Day Weather Forecast

Advertisements
Track Severe Weather on mobile